sensor_id;sensor_type;location;lat;lon;timestamp;pressure;altitude;pressure_sealevel;temperature;humidity
46690;BME280;32423;45.398;10.874;2023-06-14T00:00:48;100239.47;;;21.54;69.60
46690;BME280;32423;45.398;10.874;2023-06-14T00:03:33;100232.00;;;21.44;69.92
46690;BME280;32423;45.398;10.874;2023-06-14T00:06:18;100232.38;;;21.56;69.23
46690;BME280;32423;45.398;10.874;2023-06-14T00:09:03;100232.78;;;21.51;69.59
46690;BME280;32423;45.398;10.874;2023-06-14T00:11:47;100236.66;;;21.64;68.53
46690;BME280;32423;45.398;10.874;2023-06-14T00:14:32;100235.50;;;21.62;67.93
46690;BME280;32423;45.398;10.874;2023-06-14T00:17:16;100223.19;;;21.70;68.31
46690;BME280;32423;45.398;10.874;2023-06-14T00:20:03;100231.97;;;21.58;67.99
46690;BME280;32423;45.398;10.874;2023-06-14T00:22:51;100235.94;;;21.50;68.23
46690;BME280;32423;45.398;10.874;2023-06-14T00:25:36;100223.75;;;21.37;66.19
46690;BME280;32423;45.398;10.874;2023-06-14T00:28:20;100227.72;;;21.32;67.63
46690;BME280;32423;45.398;10.874;2023-06-14T00:31:05;100228.06;;;21.41;66.25
46690;BME280;32423;45.398;10.874;2023-06-14T00:33:50;100231.22;;;21.43;65.06
46690;BME280;32423;45.398;10.874;2023-06-14T00:36:35;100226.47;;;21.47;64.09
46690;BME280;32423;45.398;10.874;2023-06-14T00:39:20;100229.22;;;21.44;63.55
46690;BME280;32423;45.398;10.874;2023-06-14T00:42:04;100220.94;;;21.44;61.63
46690;BME280;32423;45.398;10.874;2023-06-14T00:44:50;100221.81;;;21.19;60.08
46690;BME280;32423;45.398;10.874;2023-06-14T00:47:37;100218.25;;;21.05;60.40
46690;BME280;32423;45.398;10.874;2023-06-14T00:50:23;100221.03;;;21.01;60.48
46690;BME280;32423;45.398;10.874;2023-06-14T00:53:08;100222.59;;;20.88;60.70
46690;BME280;32423;45.398;10.874;2023-06-14T00:55:53;100211.56;;;20.91;60.30
46690;BME280;32423;45.398;10.874;2023-06-14T00:58:38;100208.41;;;20.86;60.98
46690;BME280;32423;45.398;10.874;2023-06-14T01:01:23;100203.69;;;20.44;62.57
46690;BME280;32423;45.398;10.874;2023-06-14T01:04:08;100211.59;;;20.56;61.71
46690;BME280;32423;45.398;10.874;2023-06-14T01:07:15;100210.41;;;20.61;61.96
46690;BME280;32423;45.398;10.874;2023-06-14T01:13:30;100215.13;;;20.85;61.09
46690;BME280;32423;45.398;10.874;2023-06-14T01:16:16;100210.72;;;20.06;63.31
46690;BME280;32423;45.398;10.874;2023-06-14T01:19:03;100212.19;;;19.72;65.08
46690;BME280;32423;45.398;10.874;2023-06-14T01:21:48;100208.88;;;19.38;66.78
46690;BME280;32423;45.398;10.874;2023-06-14T01:24:35;100213.59;;;19.34;67.40
46690;BME280;32423;45.398;10.874;2023-06-14T01:27:29;100207.97;;;19.16;68.10
46690;BME280;32423;45.398;10.874;2023-06-14T01:30:15;100209.56;;;19.17;68.61
46690;BME280;32423;45.398;10.874;2023-06-14T01:33:00;100207.97;;;19.16;68.49
46690;BME280;32423;45.398;10.874;2023-06-14T01:35:47;100206.50;;;19.36;67.90
46690;BME280;32423;45.398;10.874;2023-06-14T01:38:32;100202.50;;;19.23;68.07
46690;BME280;32423;45.398;10.874;2023-06-14T01:41:18;100202.06;;;19.14;69.17
46690;BME280;32423;45.398;10.874;2023-06-14T01:44:05;100200.94;;;19.22;69.34
46690;BME280;32423;45.398;10.874;2023-06-14T01:46:51;100203.91;;;18.96;69.94
46690;BME280;32423;45.398;10.874;2023-06-14T01:49:36;100206.28;;;18.94;70.97
46690;BME280;32423;45.398;10.874;2023-06-14T01:52:23;100195.13;;;18.79;70.95
46690;BME280;32423;45.398;10.874;2023-06-14T01:55:09;100195.94;;;18.80;70.95
46690;BME280;32423;45.398;10.874;2023-06-14T01:57:54;100196.81;;;18.91;70.31
46690;BME280;32423;45.398;10.874;2023-06-14T02:00:39;100187.66;;;18.80;71.12
46690;BME280;32423;45.398;10.874;2023-06-14T02:03:24;100189.84;;;19.15;69.57
46690;BME280;32423;45.398;10.874;2023-06-14T02:06:10;100197.97;;;19.66;68.21
46690;BME280;32423;45.398;10.874;2023-06-14T02:08:57;100194.91;;;19.89;67.04
46690;BME280;32423;45.398;10.874;2023-06-14T02:11:41;100195.75;;;20.11;66.17
46690;BME280;32423;45.398;10.874;2023-06-14T02:14:27;100198.09;;;20.12;66.03
46690;BME280;32423;45.398;10.874;2023-06-14T02:17:11;100203.25;;;20.28;65.49
46690;BME280;32423;45.398;10.874;2023-06-14T02:19:56;100189.50;;;20.31;65.11
46690;BME280;32423;45.398;10.874;2023-06-14T02:22:45;100195.81;;;20.39;64.32
46690;BME280;32423;45.398;10.874;2023-06-14T02:25:29;100194.97;;;20.28;64.94
46690;BME280;32423;45.398;10.874;2023-06-14T02:28:14;100190.63;;;20.23;65.49
46690;BME280;32423;45.398;10.874;2023-06-14T02:30:59;100194.53;;;20.12;65.69
46690;BME280;32423;45.398;10.874;2023-06-14T02:33:45;100196.50;;;20.07;65.61
46690;BME280;32423;45.398;10.874;2023-06-14T02:36:30;100200.91;;;20.30;65.36
46690;BME280;32423;45.398;10.874;2023-06-14T02:39:15;100192.66;;;20.40;64.87
46690;BME280;32423;45.398;10.874;2023-06-14T02:42:02;100192.25;;;20.38;65.20
46690;BME280;32423;45.398;10.874;2023-06-14T02:44:46;100191.06;;;20.39;65.77
46690;BME280;32423;45.398;10.874;2023-06-14T02:47:35;100186.72;;;20.45;64.97
46690;BME280;32423;45.398;10.874;2023-06-14T02:50:20;100190.28;;;20.57;64.72
46690;BME280;32423;45.398;10.874;2023-06-14T02:53:06;100194.63;;;20.72;64.65
46690;BME280;32423;45.398;10.874;2023-06-14T02:55:52;100182.38;;;20.59;64.38
46690;BME280;32423;45.398;10.874;2023-06-14T02:58:37;100182.38;;;20.69;64.43
46690;BME280;32423;45.398;10.874;2023-06-14T03:01:22;100172.88;;;20.81;63.82
46690;BME280;32423;45.398;10.874;2023-06-14T03:04:08;100191.06;;;20.71;63.96
46690;BME280;32423;45.398;10.874;2023-06-14T03:06:56;100178.78;;;20.83;64.28
46690;BME280;32423;45.398;10.874;2023-06-14T03:09:41;100193.41;;;20.83;63.79
46690;BME280;32423;45.398;10.874;2023-06-14T03:12:29;100189.06;;;20.75;64.15
46690;BME280;32423;45.398;10.874;2023-06-14T03:15:14;100194.22;;;20.52;66.41
46690;BME280;32423;45.398;10.874;2023-06-14T03:18:04;100183.09;;;20.98;63.96
46690;BME280;32423;45.398;10.874;2023-06-14T03:20:48;100176.81;;;20.94;64.54
46690;BME280;32423;45.398;10.874;2023-06-14T03:23:36;100173.31;;;20.72;66.36
46690;BME280;32423;45.398;10.874;2023-06-14T03:26:22;100175.28;;;20.51;66.44
46690;BME280;32423;45.398;10.874;2023-06-14T03:29:10;100170.09;;;20.91;65.43
46690;BME280;32423;45.398;10.874;2023-06-14T03:32:00;100173.53;;;21.42;64.18
46690;BME280;32423;45.398;10.874;2023-06-14T03:34:52;100171.91;;;21.51;63.18
46690;BME280;32423;45.398;10.874;2023-06-14T03:37:41;100166.25;;;21.69;62.96
46690;BME280;32423;45.398;10.874;2023-06-14T03:40:27;100162.22;;;21.88;62.32
46690;BME280;32423;45.398;10.874;2023-06-14T03:43:18;100167.22;;;21.38;63.03
46690;BME280;32423;45.398;10.874;2023-06-14T03:46:03;100160.50;;;21.35;63.79
46690;BME280;32423;45.398;10.874;2023-06-14T03:48:50;100169.59;;;21.36;64.40
46690;BME280;32423;45.398;10.874;2023-06-14T03:51:36;100159.66;;;21.49;63.71
46690;BME280;32423;45.398;10.874;2023-06-14T03:54:21;100167.22;;;21.34;63.51
46690;BME280;32423;45.398;10.874;2023-06-14T03:57:08;100165.31;;;21.10;63.45
46690;BME280;32423;45.398;10.874;2023-06-14T03:59:53;100165.75;;;20.83;65.01
46690;BME280;32423;45.398;10.874;2023-06-14T04:02:38;100170.16;;;20.67;65.73
46690;BME280;32423;45.398;10.874;2023-06-14T04:05:23;100169.34;;;20.77;65.89
46690;BME280;32423;45.398;10.874;2023-06-14T04:08:13;100177.63;;;20.59;66.66
46690;BME280;32423;45.398;10.874;2023-06-14T04:10:58;100178.44;;;20.60;66.43
46690;BME280;32423;45.398;10.874;2023-06-14T04:13:44;100177.63;;;20.63;66.15
46690;BME280;32423;45.398;10.874;2023-06-14T04:16:28;100187.50;;;20.67;66.03
46690;BME280;32423;45.398;10.874;2023-06-14T04:19:17;100199.75;;;20.56;66.70
46690;BME280;32423;45.398;10.874;2023-06-14T04:22:01;100202.09;;;20.82;66.01
46690;BME280;32423;45.398;10.874;2023-06-14T04:24:48;100202.06;;;21.07;64.96
46690;BME280;32423;45.398;10.874;2023-06-14T04:27:34;100203.63;;;21.15;64.84
46690;BME280;32423;45.398;10.874;2023-06-14T04:30:22;100202.78;;;21.36;64.08
46690;BME280;32423;45.398;10.874;2023-06-14T04:33:11;100198.47;;;21.13;64.76
46690;BME280;32423;45.398;10.874;2023-06-14T04:35:56;100201.22;;;21.13;64.74
46690;BME280;32423;45.398;10.874;2023-06-14T04:38:40;100212.69;;;21.08;65.20
46690;BME280;32423;45.398;10.874;2023-06-14T04:41:26;100215.06;;;21.24;64.54
46690;BME280;32423;45.398;10.874;2023-06-14T04:44:15;100214.31;;;21.16;64.58
46690;BME280;32423;45.398;10.874;2023-06-14T04:47:04;100216.25;;;21.26;64.96
46690;BME280;32423;45.398;10.874;2023-06-14T04:49:51;100215.47;;;21.08;65.48
46690;BME280;32423;45.398;10.874;2023-06-14T04:52:40;100217.06;;;21.16;65.86
46690;BME280;32423;45.398;10.874;2023-06-14T04:55:25;100221.72;;;21.44;64.40
46690;BME280;32423;45.398;10.874;2023-06-14T04:58:11;100211.75;;;21.64;63.89
46690;BME280;32423;45.398;10.874;2023-06-14T05:00:58;100225.91;;;21.81;63.59
46690;BME280;32423;45.398;10.874;2023-06-14T05:03:44;100230.22;;;21.92;63.36
46690;BME280;32423;45.398;10.874;2023-06-14T05:06:30;100226.28;;;21.97;63.61
46690;BME280;32423;45.398;10.874;2023-06-14T05:09:16;100225.06;;;21.91;63.57
46690;BME280;32423;45.398;10.874;2023-06-14T05:12:04;100216.75;;;22.01;63.50
46690;BME280;32423;45.398;10.874;2023-06-14T05:14:49;100214.41;;;21.96;62.82
46690;BME280;32423;45.398;10.874;2023-06-14T05:17:38;100221.84;;;22.06;62.09
46690;BME280;32423;45.398;10.874;2023-06-14T05:20:24;100233.00;;;21.92;61.59
46690;BME280;32423;45.398;10.874;2023-06-14T05:23:11;100230.41;;;21.50;62.69
46690;BME280;32423;45.398;10.874;2023-06-14T05:25:59;100239.06;;;21.55;63.65
46690;BME280;32423;45.398;10.874;2023-06-14T05:28:44;100237.81;;;21.77;63.37
46690;BME280;32423;45.398;10.874;2023-06-14T05:31:28;100233.84;;;21.75;63.26
46690;BME280;32423;45.398;10.874;2023-06-14T05:34:13;100239.94;;;21.42;65.08
46690;BME280;32423;45.398;10.874;2023-06-14T05:36:58;100244.31;;;21.25;65.07
46690;BME280;32423;45.398;10.874;2023-06-14T05:39:43;100228.91;;;21.20;65.80
46690;BME280;32423;45.398;10.874;2023-06-14T05:42:27;100231.28;;;21.18;65.90
46690;BME280;32423;45.398;10.874;2023-06-14T05:45:12;100239.13;;;21.48;64.21
46690;BME280;32423;45.398;10.874;2023-06-14T05:47:59;100246.22;;;21.46;63.26
46690;BME280;32423;45.398;10.874;2023-06-14T05:50:44;100252.47;;;21.71;63.36
46690;BME280;32423;45.398;10.874;2023-06-14T05:53:28;100246.06;;;21.88;62.80
46690;BME280;32423;45.398;10.874;2023-06-14T05:56:14;100251.59;;;21.95;62.17
46690;BME280;32423;45.398;10.874;2023-06-14T05:58:59;100259.44;;;22.07;63.47
46690;BME280;32423;45.398;10.874;2023-06-14T06:01:44;100252.66;;;22.15;62.86
46690;BME280;32423;45.398;10.874;2023-06-14T06:04:28;100255.00;;;22.24;62.56
46690;BME280;32423;45.398;10.874;2023-06-14T06:07:12;100253.78;;;22.25;62.45
46690;BME280;32423;45.398;10.874;2023-06-14T06:09:57;100258.53;;;22.28;62.32
46690;BME280;32423;45.398;10.874;2023-06-14T06:12:42;100261.28;;;22.32;62.62
46690;BME280;32423;45.398;10.874;2023-06-14T06:15:27;100256.91;;;22.31;62.24
46690;BME280;32423;45.398;10.874;2023-06-14T06:18:12;100261.66;;;22.34;62.08
46690;BME280;32423;45.398;10.874;2023-06-14T06:20:56;100264.00;;;22.35;62.18
46690;BME280;32423;45.398;10.874;2023-06-14T06:23:41;100264.78;;;22.36;62.00
46690;BME280;32423;45.398;10.874;2023-06-14T06:26:26;100271.13;;;22.36;61.90
46690;BME280;32423;45.398;10.874;2023-06-14T06:29:11;100275.09;;;22.39;61.75
46690;BME280;32423;45.398;10.874;2023-06-14T06:31:56;100275.09;;;22.39;61.85
46690;BME280;32423;45.398;10.874;2023-06-14T06:34:41;100282.22;;;22.40;61.95
46690;BME280;32423;45.398;10.874;2023-06-14T06:37:26;100284.19;;;22.39;61.83
46690;BME280;32423;45.398;10.874;2023-06-14T06:40:10;100285.34;;;22.42;61.91
46690;BME280;32423;45.398;10.874;2023-06-14T06:42:55;100277.03;;;22.42;61.76
46690;BME280;32423;45.398;10.874;2023-06-14T06:45:40;100279.81;;;22.42;61.86
46690;BME280;32423;45.398;10.874;2023-06-14T06:48:24;100286.94;;;22.43;61.80
46690;BME280;32423;45.398;10.874;2023-06-14T06:51:09;100296.44;;;22.42;62.01
46690;BME280;32423;45.398;10.874;2023-06-14T06:53:53;100292.88;;;22.45;62.02
46690;BME280;32423;45.398;10.874;2023-06-14T06:56:38;100298.78;;;22.47;61.96
46690;BME280;32423;45.398;10.874;2023-06-14T06:59:23;100298.84;;;22.40;62.30
46690;BME280;32423;45.398;10.874;2023-06-14T07:02:08;100294.06;;;22.44;62.11
46690;BME280;32423;45.398;10.874;2023-06-14T07:04:52;100298.38;;;22.48;60.91
46690;BME280;32423;45.398;10.874;2023-06-14T07:07:37;100300.16;;;22.14;61.79
46690;BME280;32423;45.398;10.874;2023-06-14T07:10:22;100295.91;;;21.85;63.05
46690;BME280;32423;45.398;10.874;2023-06-14T07:13:09;100297.91;;;21.77;63.23
46690;BME280;32423;45.398;10.874;2023-06-14T07:16:00;100308.91;;;22.05;63.19
46690;BME280;32423;45.398;10.874;2023-06-14T07:18:44;100302.56;;;22.05;61.02
46690;BME280;32423;45.398;10.874;2023-06-14T07:21:30;100301.84;;;21.94;59.51
46690;BME280;32423;45.398;10.874;2023-06-14T07:24:15;100307.72;;;21.99;60.07
46690;BME280;32423;45.398;10.874;2023-06-14T07:26:59;100312.50;;;21.88;58.96
46690;BME280;32423;45.398;10.874;2023-06-14T07:29:46;100318.47;;;21.83;58.63
46690;BME280;32423;45.398;10.874;2023-06-14T07:32:30;100314.47;;;21.98;59.70
46690;BME280;32423;45.398;10.874;2023-06-14T07:35:15;100312.88;;;22.04;59.07
46690;BME280;32423;45.398;10.874;2023-06-14T07:37:59;100315.63;;;22.08;58.66
46690;BME280;32423;45.398;10.874;2023-06-14T07:40:44;100309.28;;;22.07;58.63
46690;BME280;32423;45.398;10.874;2023-06-14T07:43:29;100305.72;;;22.14;59.16
46690;BME280;32423;45.398;10.874;2023-06-14T07:46:14;100312.50;;;21.95;58.73
46690;BME280;32423;45.398;10.874;2023-06-14T07:48:59;100310.88;;;22.08;59.80
46690;BME280;32423;45.398;10.874;2023-06-14T07:51:44;100305.28;;;22.19;58.66
46690;BME280;32423;45.398;10.874;2023-06-14T07:54:30;100309.31;;;22.00;58.85
46690;BME280;32423;45.398;10.874;2023-06-14T07:57:17;100312.09;;;21.93;58.95
46690;BME280;32423;45.398;10.874;2023-06-14T08:00:04;100319.22;;;22.01;59.15
46690;BME280;32423;45.398;10.874;2023-06-14T08:02:57;100300.13;;;22.21;59.50
46690;BME280;32423;45.398;10.874;2023-06-14T08:05:43;100307.69;;;22.10;57.95
46690;BME280;32423;45.398;10.874;2023-06-14T08:08:28;100311.59;;;22.23;59.69
46690;BME280;32423;45.398;10.874;2023-06-14T08:11:13;100314.31;;;22.34;58.81
46690;BME280;32423;45.398;10.874;2023-06-14T08:13:58;100318.59;;;22.42;59.56
46690;BME280;32423;45.398;10.874;2023-06-14T08:16:42;100318.09;;;23.13;55.34
46690;BME280;32423;45.398;10.874;2023-06-14T08:19:27;100327.25;;;23.54;55.07
46690;BME280;32423;45.398;10.874;2023-06-14T08:22:12;100324.13;;;23.86;53.02
46690;BME280;32423;45.398;10.874;2023-06-14T08:24:57;100325.88;;;24.03;51.16
46690;BME280;32423;45.398;10.874;2023-06-14T08:27:42;100326.91;;;23.04;53.44
46690;BME280;32423;45.398;10.874;2023-06-14T08:30:27;100325.56;;;22.68;54.86
46690;BME280;32423;45.398;10.874;2023-06-14T08:33:12;100332.16;;;22.22;55.66
46690;BME280;32423;45.398;10.874;2023-06-14T08:35:56;100337.53;;;22.50;55.16
46690;BME280;32423;45.398;10.874;2023-06-14T08:38:41;100331.81;;;22.82;55.51
46690;BME280;32423;45.398;10.874;2023-06-14T08:41:25;100339.19;;;23.48;52.24
46690;BME280;32423;45.398;10.874;2023-06-14T08:44:11;100335.03;;;23.25;53.58
46690;BME280;32423;45.398;10.874;2023-06-14T08:46:56;100335.78;;;22.81;55.41
46690;BME280;32423;45.398;10.874;2023-06-14T08:49:47;100343.06;;;22.57;55.28
46690;BME280;32423;45.398;10.874;2023-06-14T08:52:36;100344.56;;;22.69;55.79
46690;BME280;32423;45.398;10.874;2023-06-14T08:55:24;100344.31;;;22.46;56.43
46690;BME280;32423;45.398;10.874;2023-06-14T08:58:12;100343.91;;;22.47;56.79
46690;BME280;32423;45.398;10.874;2023-06-14T09:00:59;100353.78;;;22.52;56.83
46690;BME280;32423;45.398;10.874;2023-06-14T09:03:44;100356.91;;;22.57;55.97
46690;BME280;32423;45.398;10.874;2023-06-14T09:06:30;100358.94;;;22.50;55.78
46690;BME280;32423;45.398;10.874;2023-06-14T09:09:14;100357.31;;;22.59;54.92
46690;BME280;32423;45.398;10.874;2023-06-14T09:11:59;100354.13;;;22.57;55.82
46690;BME280;32423;45.398;10.874;2023-06-14T09:14:43;100360.44;;;22.65;56.06
46690;BME280;32423;45.398;10.874;2023-06-14T09:17:28;100358.88;;;22.57;55.80
46690;BME280;32423;45.398;10.874;2023-06-14T09:20:13;100357.31;;;22.56;56.13
46690;BME280;32423;45.398;10.874;2023-06-14T09:23:02;100367.19;;;22.57;55.82
46690;BME280;32423;45.398;10.874;2023-06-14T09:25:50;100358.16;;;22.49;54.88
46690;BME280;32423;45.398;10.874;2023-06-14T09:28:35;100363.28;;;22.51;55.76
46690;BME280;32423;45.398;10.874;2023-06-14T09:31:20;100364.84;;;22.55;54.78
46690;BME280;32423;45.398;10.874;2023-06-14T09:34:06;100360.44;;;22.61;54.34
46690;BME280;32423;45.398;10.874;2023-06-14T09:36:51;100370.75;;;22.61;54.93
46690;BME280;32423;45.398;10.874;2023-06-14T09:39:49;100365.94;;;22.72;54.25
46690;BME280;32423;45.398;10.874;2023-06-14T09:42:34;100361.19;;;22.66;55.17
46690;BME280;32423;45.398;10.874;2023-06-14T09:45:20;100368.75;;;22.65;54.12
46690;BME280;32423;45.398;10.874;2023-06-14T09:48:07;100368.78;;;22.58;53.93
46690;BME280;32423;45.398;10.874;2023-06-14T09:50:55;100366.38;;;22.64;54.40
46690;BME280;32423;45.398;10.874;2023-06-14T09:53:41;100370.31;;;22.66;54.02
46690;BME280;32423;45.398;10.874;2023-06-14T09:56:29;100369.91;;;22.71;54.03
46690;BME280;32423;45.398;10.874;2023-06-14T09:59:23;100364.75;;;22.73;53.59
46690;BME280;32423;45.398;10.874;2023-06-14T10:02:32;100371.91;;;22.67;53.69
46690;BME280;32423;45.398;10.874;2023-06-14T10:05:19;100366.75;;;22.73;53.75
46690;BME280;32423;45.398;10.874;2023-06-14T10:08:08;100358.00;;;22.78;52.85
46690;BME280;32423;45.398;10.874;2023-06-14T10:10:55;100350.41;;;22.89;52.74
46690;BME280;32423;45.398;10.874;2023-06-14T10:13:41;100354.75;;;22.86;53.22
46690;BME280;32423;45.398;10.874;2023-06-14T10:19:55;100353.88;;;23.00;51.76
46690;BME280;32423;45.398;10.874;2023-06-14T10:23:16;100349.88;;;23.05;50.75
46690;BME280;32423;45.398;10.874;2023-06-14T10:26:01;100349.09;;;23.04;51.17
46690;BME280;32423;45.398;10.874;2023-06-14T10:28:58;100344.69;;;23.07;51.45
46690;BME280;32423;45.398;10.874;2023-06-14T10:31:51;100332.38;;;23.11;50.37
46690;BME280;32423;45.398;10.874;2023-06-14T10:34:39;100334.00;;;23.09;51.95
46690;BME280;32423;45.398;10.874;2023-06-14T10:37:24;100343.47;;;23.11;50.38
46690;BME280;32423;45.398;10.874;2023-06-14T10:40:29;100333.09;;;23.19;52.06
46690;BME280;32423;45.398;10.874;2023-06-14T10:43:21;100333.84;;;23.23;48.92
46690;BME280;32423;45.398;10.874;2023-06-14T10:46:18;100341.78;;;23.24;48.42
46690;BME280;32423;45.398;10.874;2023-06-14T10:49:06;100336.28;;;23.21;51.34
46690;BME280;32423;45.398;10.874;2023-06-14T10:51:51;100331.41;;;23.32;44.58
46690;BME280;32423;45.398;10.874;2023-06-14T10:54:37;100330.63;;;23.31;47.42
46690;BME280;32423;45.398;10.874;2023-06-14T10:57:23;100327.88;;;23.28;46.85
46690;BME280;32423;45.398;10.874;2023-06-14T11:00:09;100320.97;;;23.43;47.40
46690;BME280;32423;45.398;10.874;2023-06-14T11:06:15;100320.97;;;23.43;49.73
46690;BME280;32423;45.398;10.874;2023-06-14T11:09:42;100313.94;;;23.35;49.38
46690;BME280;32423;45.398;10.874;2023-06-14T11:12:36;100306.28;;;23.83;44.03
46690;BME280;32423;45.398;10.874;2023-06-14T11:15:33;100315.06;;;23.82;46.00
46690;BME280;32423;45.398;10.874;2023-06-14T11:18:18;100309.28;;;23.66;45.67
46690;BME280;32423;45.398;10.874;2023-06-14T11:21:03;100308.44;;;23.69;47.33
46690;BME280;32423;45.398;10.874;2023-06-14T11:23:51;100299.06;;;23.90;43.71
46690;BME280;32423;45.398;10.874;2023-06-14T11:26:37;100292.47;;;24.10;42.69
46690;BME280;32423;45.398;10.874;2023-06-14T11:29:22;100288.38;;;24.22;42.26
46690;BME280;32423;45.398;10.874;2023-06-14T11:32:07;100291.44;;;23.97;44.55
46690;BME280;32423;45.398;10.874;2023-06-14T11:34:56;100290.59;;;23.70;47.28
46690;BME280;32423;45.398;10.874;2023-06-14T11:37:43;100287.34;;;23.75;46.26
46690;BME280;32423;45.398;10.874;2023-06-14T11:40:28;100286.72;;;23.60;46.51
46690;BME280;32423;45.398;10.874;2023-06-14T11:43:13;100284.47;;;23.48;48.31
46690;BME280;32423;45.398;10.874;2023-06-14T11:45:58;100274.84;;;23.60;46.90
46690;BME280;32423;45.398;10.874;2023-06-14T11:48:43;100280.56;;;23.79;43.72
46690;BME280;32423;45.398;10.874;2023-06-14T11:51:29;100279.34;;;23.80;45.58
46690;BME280;32423;45.398;10.874;2023-06-14T11:54:14;100280.94;;;23.81;46.02
46690;BME280;32423;45.398;10.874;2023-06-14T11:56:59;100279.69;;;24.13;43.45
46690;BME280;32423;45.398;10.874;2023-06-14T11:59:45;100272.53;;;24.46;40.33
46690;BME280;32423;45.398;10.874;2023-06-14T12:02:31;100268.38;;;24.57;40.37
46690;BME280;32423;45.398;10.874;2023-06-14T12:05:16;100265.47;;;24.64;41.09
46690;BME280;32423;45.398;10.874;2023-06-14T12:08:05;100269.28;;;24.74;41.48
46690;BME280;32423;45.398;10.874;2023-06-14T12:10:52;100260.63;;;24.95;41.28
46690;BME280;32423;45.398;10.874;2023-06-14T12:13:43;100252.34;;;24.92;40.88
46690;BME280;32423;45.398;10.874;2023-06-14T12:16:33;100256.38;;;25.10;39.02
46690;BME280;32423;45.398;10.874;2023-06-14T12:19:17;100242.88;;;24.86;38.17
46690;BME280;32423;45.398;10.874;2023-06-14T12:22:03;100244.72;;;24.96;41.29
46690;BME280;32423;45.398;10.874;2023-06-14T12:24:49;100258.63;;;25.19;41.43
46690;BME280;32423;45.398;10.874;2023-06-14T12:27:34;100237.88;;;25.43;40.63
46690;BME280;32423;45.398;10.874;2023-06-14T12:30:19;100244.72;;;25.39;41.60
46690;BME280;32423;45.398;10.874;2023-06-14T12:33:05;100240.94;;;25.29;40.02
46690;BME280;32423;45.398;10.874;2023-06-14T12:35:50;100240.69;;;25.20;39.68
46690;BME280;32423;45.398;10.874;2023-06-14T12:38:36;100238.09;;;25.09;39.85
46690;BME280;32423;45.398;10.874;2023-06-14T12:41:21;100236.19;;;25.06;40.86
46690;BME280;32423;45.398;10.874;2023-06-14T12:44:06;100235.31;;;24.86;40.91
46690;BME280;32423;45.398;10.874;2023-06-14T12:46:50;100242.16;;;25.05;39.54
46690;BME280;32423;45.398;10.874;2023-06-14T12:49:39;100243.72;;;25.49;39.23
46690;BME280;32423;45.398;10.874;2023-06-14T12:52:24;100240.28;;;25.41;39.66
46690;BME280;32423;45.398;10.874;2023-06-14T12:55:09;100241.44;;;25.24;39.62
46690;BME280;32423;45.398;10.874;2023-06-14T12:57:54;100240.06;;;25.32;37.09
46690;BME280;32423;45.398;10.874;2023-06-14T13:00:40;100236.34;;;25.19;38.24
46690;BME280;32423;45.398;10.874;2023-06-14T13:03:24;100239.28;;;25.32;35.96
46690;BME280;32423;45.398;10.874;2023-06-14T13:06:10;100233.41;;;25.06;38.51
46690;BME280;32423;45.398;10.874;2023-06-14T13:08:55;100223.66;;;24.71;41.93
46690;BME280;32423;45.398;10.874;2023-06-14T13:11:42;100221.53;;;24.79;41.68
46690;BME280;32423;45.398;10.874;2023-06-14T13:14:30;100227.47;;;25.04;36.57
46690;BME280;32423;45.398;10.874;2023-06-14T13:17:14;100229.84;;;25.26;38.77
46690;BME280;32423;45.398;10.874;2023-06-14T13:20:00;100219.09;;;25.47;37.75
46690;BME280;32423;45.398;10.874;2023-06-14T13:22:44;100223.91;;;25.04;40.23
46690;BME280;32423;45.398;10.874;2023-06-14T13:25:29;100219.97;;;25.01;36.82
46690;BME280;32423;45.398;10.874;2023-06-14T13:28:14;100217.91;;;25.05;37.69
46690;BME280;32423;45.398;10.874;2023-06-14T13:30:59;100219.16;;;25.24;38.29
46690;BME280;32423;45.398;10.874;2023-06-14T13:33:44;100209.38;;;25.36;36.88
46690;BME280;32423;45.398;10.874;2023-06-14T13:36:29;100206.59;;;25.36;36.92
46690;BME280;32423;45.398;10.874;2023-06-14T13:39:14;100211.06;;;25.10;38.54
46690;BME280;32423;45.398;10.874;2023-06-14T13:41:59;100206.59;;;25.36;36.71
46690;BME280;32423;45.398;10.874;2023-06-14T13:44:44;100200.19;;;25.19;37.70
46690;BME280;32423;45.398;10.874;2023-06-14T13:47:29;100193.38;;;25.40;37.92
46690;BME280;32423;45.398;10.874;2023-06-14T13:50:15;100197.81;;;25.57;39.05
46690;BME280;32423;45.398;10.874;2023-06-14T13:53:00;100191.25;;;25.47;38.52
46690;BME280;32423;45.398;10.874;2023-06-14T13:55:46;100192.19;;;25.61;40.98
46690;BME280;32423;45.398;10.874;2023-06-14T13:58:31;100193.25;;;25.67;40.87
46690;BME280;32423;45.398;10.874;2023-06-14T14:01:15;100196.44;;;25.85;37.23
46690;BME280;32423;45.398;10.874;2023-06-14T14:04:02;100185.75;;;25.64;39.49
46690;BME280;32423;45.398;10.874;2023-06-14T14:06:48;100196.44;;;25.85;38.07
46690;BME280;32423;45.398;10.874;2023-06-14T14:09:33;100181.59;;;25.52;39.01
46690;BME280;32423;45.398;10.874;2023-06-14T14:12:22;100179.41;;;25.63;37.73
46690;BME280;32423;45.398;10.874;2023-06-14T14:15:07;100195.28;;;25.82;37.98
46690;BME280;32423;45.398;10.874;2023-06-14T14:17:57;100195.59;;;25.48;38.64
46690;BME280;32423;45.398;10.874;2023-06-14T14:20:42;100187.88;;;25.76;38.23
46690;BME280;32423;45.398;10.874;2023-06-14T14:23:26;100197.28;;;25.82;38.72
46690;BME280;32423;45.398;10.874;2023-06-14T14:26:11;100189.31;;;25.44;40.17
46690;BME280;32423;45.398;10.874;2023-06-14T14:28:56;100183.75;;;25.44;40.00